createdAt,value
2023-02-19T00:01:39.274Z,75.11
2023-02-19T00:04:08.492Z,75.11
2023-02-19T00:06:36.761Z,75.23
2023-02-19T00:09:04.966Z,74.98
2023-02-19T00:11:36.016Z,75.06
2023-02-19T00:14:04.596Z,75.26
2023-02-19T00:16:35.071Z,75.11
2023-02-19T00:19:04.413Z,75.04
2023-02-19T00:21:32.513Z,75.12
2023-02-19T00:24:02.916Z,75.13
2023-02-19T00:26:30.890Z,75.29
2023-02-19T00:29:01.467Z,75.25
2023-02-19T00:31:32.960Z,75.04
2023-02-19T00:34:03.341Z,74.99
2023-02-19T00:36:32.333Z,75.17
2023-02-19T00:39:00.245Z,75.09
2023-02-19T00:41:29.004Z,75.07
2023-02-19T00:43:58.390Z,74.81
2023-02-19T00:46:29.547Z,74.70
2023-02-19T00:48:58.766Z,74.49
2023-02-19T00:51:28.351Z,74.56
2023-02-19T00:53:56.410Z,74.38
2023-02-19T00:56:24.396Z,74.36
2023-02-19T00:58:52.598Z,74.30
2023-02-19T01:01:20.503Z,74.35
2023-02-19T01:03:50.201Z,74.15
2023-02-19T01:06:20.289Z,73.99
2023-02-19T01:08:48.704Z,74.18
2023-02-19T01:11:16.717Z,74.12
2023-02-19T01:13:44.722Z,73.95
2023-02-19T01:16:14.974Z,73.77
2023-02-19T01:18:43.236Z,73.91
2023-02-19T01:21:15.358Z,73.75
2023-02-19T01:23:44.064Z,73.76
2023-02-19T01:26:14.881Z,73.60
2023-02-19T01:28:42.743Z,73.55
2023-02-19T01:31:14.854Z,73.53
2023-02-19T01:33:46.901Z,73.61
2023-02-19T01:36:16.848Z,73.55
2023-02-19T01:38:45.374Z,73.50
2023-02-19T01:41:15.672Z,73.55
2023-02-19T01:44:01.944Z,73.41
2023-02-19T01:46:30.927Z,73.42
2023-02-19T01:49:04.053Z,73.26
2023-02-19T01:51:37.272Z,73.14
2023-02-19T01:54:08.132Z,73.37
2023-02-19T01:56:39.213Z,73.07
2023-02-19T01:59:08.627Z,72.97
2023-02-19T02:01:38.296Z,73.00
2023-02-19T02:04:07.851Z,73.01
2023-02-19T02:06:43.521Z,72.86
2023-02-19T02:09:29.011Z,72.77
2023-02-19T02:11:56.812Z,72.72
2023-02-19T02:14:28.640Z,72.30
2023-02-19T02:17:07.845Z,72.73
2023-02-19T02:19:57.388Z,72.49
2023-02-19T02:22:32.435Z,72.50
2023-02-19T02:25:33.927Z,72.52
2023-02-19T02:28:14.234Z,72.45
2023-02-19T02:30:47.252Z,72.44
2023-02-19T02:33:22.363Z,72.24
2023-02-19T02:35:54.048Z,72.46
2023-02-19T02:38:24.970Z,72.41
2023-02-19T02:40:53.421Z,72.30
2023-02-19T02:43:21.168Z,72.31
2023-02-19T02:45:50.611Z,72.20
2023-02-19T02:48:25.675Z,72.27
2023-02-19T02:50:56.196Z,72.55
2023-02-19T02:53:47.526Z,72.09
2023-02-19T02:56:17.365Z,72.24
2023-02-19T02:58:46.226Z,72.48
2023-02-19T03:01:37.883Z,72.70
2023-02-19T03:04:09.969Z,72.92
2023-02-19T03:06:39.072Z,72.76
2023-02-19T03:09:12.514Z,72.66
2023-02-19T03:12:02.226Z,72.89
2023-02-19T03:14:53.920Z,73.02
2023-02-19T03:17:46.226Z,72.97
2023-02-19T03:20:17.071Z,73.18
2023-02-19T03:22:47.217Z,73.07
2023-02-19T03:25:38.092Z,73.14
2023-02-19T03:28:09.728Z,73.11
2023-02-19T03:30:41.339Z,72.96
2023-02-19T03:33:14.867Z,72.95
2023-02-19T03:35:47.574Z,72.98
2023-02-19T03:38:20.703Z,73.00
2023-02-19T03:40:57.464Z,72.88
2023-02-19T03:43:28.369Z,72.89
2023-02-19T03:46:03.530Z,72.83
2023-02-19T03:48:35.870Z,72.59
2023-02-19T03:51:13.074Z,72.87
2023-02-19T03:53:51.829Z,72.63
2023-02-19T03:56:27.835Z,72.51
2023-02-19T03:59:01.440Z,72.40
2023-02-19T04:01:36.994Z,72.41
2023-02-19T04:04:13.768Z,72.33
2023-02-19T04:06:43.317Z,72.21
2023-02-19T04:09:15.398Z,72.15
2023-02-19T04:11:43.718Z,72.31
2023-02-19T04:14:16.997Z,72.35
2023-02-19T04:16:50.593Z,72.21
2023-02-19T04:19:22.209Z,72.37
2023-02-19T04:21:51.987Z,72.25
2023-02-19T04:24:24.066Z,72.29
2023-02-19T04:26:51.955Z,72.19
2023-02-19T04:29:19.749Z,72.12
2023-02-19T04:31:47.507Z,71.93
2023-02-19T04:34:15.208Z,71.83
2023-02-19T04:36:44.294Z,71.89
2023-02-19T04:39:11.974Z,71.90
2023-02-19T04:41:39.713Z,71.92
2023-02-19T04:44:07.482Z,71.95
2023-02-19T04:46:35.144Z,72.01
2023-02-19T04:49:02.924Z,72.08
2023-02-19T04:51:30.628Z,71.75
2023-02-19T04:53:59.722Z,71.81
2023-02-19T04:56:27.425Z,71.57
2023-02-19T04:58:55.096Z,71.76
2023-02-19T05:01:22.870Z,71.84
2023-02-19T05:03:50.617Z,71.85
2023-02-19T05:06:18.600Z,71.86
2023-02-19T05:08:46.339Z,71.88
2023-02-19T05:11:15.442Z,72.09
2023-02-19T05:13:43.165Z,72.09
2023-02-19T05:16:13.824Z,72.11
2023-02-19T05:18:42.424Z,72.43
2023-02-19T05:21:12.559Z,72.31
2023-02-19T05:23:40.557Z,72.43
2023-02-19T05:26:09.294Z,72.58
2023-02-19T05:28:38.431Z,72.75
2023-02-19T05:31:08.213Z,72.54
2023-02-19T05:33:37.007Z,72.57
2023-02-19T05:36:08.126Z,72.48
2023-02-19T05:38:36.292Z,72.23
2023-02-19T05:41:13.066Z,72.53
2023-02-19T05:43:43.385Z,72.58
2023-02-19T05:46:15.135Z,72.54
2023-02-19T05:48:43.660Z,72.47
2023-02-19T05:51:13.865Z,72.61
2023-02-19T05:53:42.630Z,72.62
2023-02-19T05:56:26.055Z,72.66
2023-02-19T05:58:56.100Z,72.67
2023-02-19T06:01:27.089Z,72.65
2023-02-19T06:03:57.350Z,72.54
2023-02-19T06:06:26.227Z,72.66
2023-02-19T06:08:54.635Z,72.65
2023-02-19T06:11:22.752Z,72.40
2023-02-19T06:13:51.150Z,72.38
2023-02-19T06:16:21.909Z,72.49
2023-02-19T06:18:50.437Z,72.53
2023-02-19T06:21:19.910Z,72.57
2023-02-19T06:23:47.968Z,72.06
2023-02-19T06:26:18.676Z,72.44
2023-02-19T06:28:47.802Z,72.45
2023-02-19T06:31:16.278Z,72.66
2023-02-19T06:33:45.860Z,72.42
2023-02-19T06:36:17.021Z,72.26
2023-02-19T06:38:44.885Z,72.32
2023-02-19T06:41:13.869Z,72.37
2023-02-19T06:43:42.204Z,72.15
2023-02-19T06:46:13.709Z,72.22
2023-02-19T06:48:42.598Z,72.07
2023-02-19T06:51:13.763Z,72.04
2023-02-19T06:53:41.502Z,72.09
2023-02-19T06:56:23.526Z,72.03
2023-02-19T06:58:51.665Z,71.90
2023-02-19T07:01:19.426Z,71.93
2023-02-19T07:03:47.185Z,71.77
2023-02-19T07:06:16.549Z,71.60
2023-02-19T07:08:44.254Z,71.63
2023-02-19T07:11:12.164Z,71.46
2023-02-19T07:13:40.070Z,71.48
2023-02-19T07:16:11.102Z,71.52
2023-02-19T07:18:40.276Z,71.31
2023-02-19T07:21:11.288Z,71.59
2023-02-19T07:23:41.057Z,71.72
2023-02-19T07:26:10.569Z,71.53
2023-02-19T07:28:38.313Z,71.54
2023-02-19T07:31:06.490Z,71.49
2023-02-19T07:33:34.345Z,71.52
2023-02-19T07:36:02.095Z,71.68
2023-02-19T07:38:30.015Z,71.76
2023-02-19T07:41:00.932Z,71.99
2023-02-19T07:43:30.855Z,72.22
2023-02-19T07:45:58.680Z,72.34
2023-02-19T07:48:26.457Z,72.28
2023-02-19T07:50:54.824Z,72.35
2023-02-19T07:53:23.795Z,72.39
2023-02-19T07:55:51.783Z,72.65
2023-02-19T07:58:21.139Z,72.64
2023-02-19T08:00:48.847Z,72.70
2023-02-19T08:03:15.632Z,72.63
2023-02-19T08:05:44.984Z,72.83
2023-02-19T08:08:15.361Z,72.89
2023-02-19T08:11:00.832Z,72.91
2023-02-19T08:13:31.838Z,73.10
2023-02-19T08:16:20.083Z,73.22
2023-02-19T08:18:52.136Z,73.36
2023-02-19T08:21:20.578Z,73.00
2023-02-19T08:23:51.193Z,72.91
2023-02-19T08:26:19.941Z,72.17
2023-02-19T08:28:49.763Z,71.24
2023-02-19T08:31:17.941Z,70.99
2023-02-19T08:33:46.098Z,70.71
2023-02-19T08:36:13.831Z,69.90
2023-02-19T08:38:41.543Z,69.41
2023-02-19T08:41:12.304Z,68.94
2023-02-19T08:43:40.333Z,69.33
2023-02-19T08:46:11.012Z,68.54
2023-02-19T08:48:40.147Z,68.39
2023-02-19T08:51:10.958Z,68.36
2023-02-19T08:53:41.092Z,68.69
2023-02-19T08:56:10.577Z,69.63
2023-02-19T08:58:39.007Z,69.83
2023-02-19T09:01:11.853Z,70.04
2023-02-19T09:03:39.856Z,70.50
2023-02-19T09:06:08.228Z,70.57
2023-02-19T09:08:36.081Z,70.56
2023-02-19T09:11:06.964Z,70.89
2023-02-19T09:13:34.814Z,70.88
2023-02-19T09:16:03.934Z,71.08
2023-02-19T09:18:33.704Z,71.27
2023-02-19T09:21:02.515Z,71.43
2023-02-19T09:23:30.444Z,71.89
2023-02-19T09:26:00.010Z,71.78
2023-02-19T09:28:28.139Z,71.76
2023-02-19T09:30:56.082Z,71.51
2023-02-19T09:33:23.906Z,71.54
2023-02-19T09:35:53.145Z,71.73
2023-02-19T09:38:20.846Z,71.70
2023-02-19T09:40:49.711Z,71.69
2023-02-19T09:43:20.845Z,71.79
2023-02-19T09:45:49.561Z,71.91
2023-02-19T09:48:17.307Z,71.83
2023-02-19T09:50:48.063Z,71.85
2023-02-19T09:53:22.112Z,72.07
2023-02-19T09:55:50.315Z,71.99
2023-02-19T09:58:27.323Z,72.01
2023-02-19T10:00:56.768Z,72.24
2023-02-19T10:03:30.814Z,72.20
2023-02-19T10:06:01.765Z,72.18
2023-02-19T10:08:34.312Z,72.26
2023-02-19T10:11:03.760Z,72.29
2023-02-19T10:13:34.210Z,72.36
2023-02-19T10:16:04.053Z,72.24
2023-02-19T10:18:39.645Z,72.52
2023-02-19T10:21:08.178Z,71.98
2023-02-19T10:23:37.371Z,71.89
2023-02-19T10:26:05.240Z,71.64
2023-02-19T10:28:35.460Z,71.81
2023-02-19T10:31:06.183Z,71.76
2023-02-19T10:33:34.086Z,71.91
2023-02-19T10:36:04.964Z,71.89
2023-02-19T10:38:35.073Z,71.99
2023-02-19T10:41:07.486Z,72.00
2023-02-19T10:43:39.907Z,71.74
2023-02-19T10:46:09.486Z,71.54
2023-02-19T10:48:40.626Z,71.46
2023-02-19T10:51:10.859Z,71.48
2023-02-19T10:53:46.863Z,71.52
2023-02-19T10:56:23.401Z,71.49
2023-02-19T10:58:51.616Z,71.37
2023-02-19T11:01:21.874Z,71.51
2023-02-19T11:03:52.562Z,71.75
2023-02-19T11:06:22.684Z,71.66
2023-02-19T11:08:56.904Z,71.63
2023-02-19T11:11:31.218Z,71.79
2023-02-19T11:14:00.965Z,71.74
2023-02-19T11:16:40.426Z,71.93
2023-02-19T11:19:24.198Z,71.56
2023-02-19T11:21:52.318Z,71.64
2023-02-19T11:24:29.881Z,71.62
2023-02-19T11:26:59.691Z,71.91
2023-02-19T11:29:29.364Z,71.82
2023-02-19T11:31:57.507Z,71.71
2023-02-19T11:34:30.868Z,71.63
2023-02-19T11:37:13.430Z,71.87
2023-02-19T11:39:43.432Z,71.47
2023-02-19T11:42:37.249Z,71.55
2023-02-19T11:45:28.546Z,71.58
2023-02-19T11:48:23.409Z,71.53
2023-02-19T11:51:00.440Z,70.99
2023-02-19T11:53:30.499Z,70.64
2023-02-19T11:56:13.750Z,70.36
2023-02-19T11:59:09.350Z,70.03
2023-02-19T12:01:56.056Z,70.22
2023-02-19T12:04:56.681Z,69.98
2023-02-19T12:07:38.079Z,69.64
2023-02-19T12:10:18.760Z,68.93
2023-02-19T12:13:02.260Z,68.90
2023-02-19T12:15:46.772Z,68.62
2023-02-19T12:18:43.002Z,68.72
2023-02-19T12:21:23.499Z,68.38
2023-02-19T12:24:13.130Z,68.36
2023-02-19T12:26:48.559Z,68.62
2023-02-19T12:29:34.288Z,68.70
2023-02-19T12:32:31.702Z,68.77
2023-02-19T12:35:24.579Z,68.79
2023-02-19T12:38:00.376Z,68.74
2023-02-19T12:40:49.149Z,68.62
2023-02-19T12:43:20.215Z,68.56
2023-02-19T12:45:53.877Z,68.50
2023-02-19T12:48:30.842Z,68.46
2023-02-19T12:51:03.700Z,68.46
2023-02-19T12:53:39.876Z,68.27
2023-02-19T12:56:14.768Z,68.22
2023-02-19T12:58:46.780Z,68.34
2023-02-19T13:01:20.336Z,68.59
2023-02-19T13:03:55.048Z,68.67
2023-02-19T13:06:34.339Z,68.12
2023-02-19T13:09:07.507Z,68.12
2023-02-19T13:11:41.517Z,67.66
2023-02-19T13:14:19.921Z,67.42
2023-02-19T13:16:51.933Z,67.00
2023-02-19T13:19:21.136Z,66.73
2023-02-19T13:22:14.140Z,66.99
2023-02-19T13:24:44.006Z,66.72
2023-02-19T13:27:37.938Z,66.27
2023-02-19T13:30:22.701Z,65.84
2023-02-19T13:33:00.118Z,65.86
2023-02-19T13:35:53.704Z,66.02
2023-02-19T13:38:21.905Z,65.83
2023-02-19T13:40:56.001Z,65.56
2023-02-19T13:43:26.777Z,66.09
2023-02-19T13:45:58.941Z,66.23
2023-02-19T13:48:29.658Z,66.01
2023-02-19T13:51:36.372Z,65.27
2023-02-19T13:54:15.388Z,64.81
2023-02-19T13:56:43.385Z,63.84
2023-02-19T13:59:24.540Z,63.27
2023-02-19T14:02:34.161Z,63.34
2023-02-19T14:05:07.910Z,62.50
2023-02-19T14:08:03.082Z,62.17
2023-02-19T14:11:02.489Z,61.45
2023-02-19T14:14:01.816Z,60.52
2023-02-19T14:16:49.595Z,60.42
2023-02-19T14:19:59.110Z,59.67
2023-02-19T14:23:02.580Z,59.92
2023-02-19T14:25:42.806Z,59.36
2023-02-19T14:28:30.493Z,59.46
2023-02-19T14:31:01.707Z,58.99
2023-02-19T14:33:31.444Z,58.96
2023-02-19T14:36:05.756Z,58.88
2023-02-19T14:38:37.981Z,59.14
2023-02-19T14:41:07.290Z,59.34
2023-02-19T14:43:37.544Z,59.67
2023-02-19T14:46:10.220Z,59.51
2023-02-19T14:48:42.835Z,59.71
2023-02-19T14:51:16.230Z,60.34
2023-02-19T14:53:46.531Z,60.96
2023-02-19T14:56:22.353Z,61.63
2023-02-19T14:59:10.654Z,61.74
2023-02-19T15:01:38.630Z,62.36
2023-02-19T15:04:06.967Z,62.85
2023-02-19T15:06:36.680Z,63.43
2023-02-19T15:09:07.091Z,63.24
2023-02-19T15:11:36.209Z,63.62
2023-02-19T15:14:06.814Z,63.73
2023-02-19T15:16:37.548Z,63.67
2023-02-19T15:19:10.291Z,64.16
2023-02-19T15:21:40.999Z,64.19
2023-02-19T15:24:09.088Z,64.21
2023-02-19T15:26:40.530Z,64.24
2023-02-19T15:29:12.277Z,64.12
2023-02-19T15:31:47.378Z,64.07
2023-02-19T15:34:22.147Z,64.14
2023-02-19T15:36:52.888Z,64.56
2023-02-19T15:39:23.924Z,64.18
2023-02-19T15:41:59.975Z,64.21
2023-02-19T15:44:44.272Z,64.07
2023-02-19T15:47:21.370Z,63.82
2023-02-19T15:49:55.418Z,64.26
2023-02-19T15:52:29.789Z,64.01
2023-02-19T15:55:02.946Z,64.38
2023-02-19T15:57:36.374Z,63.73
2023-02-19T16:00:13.580Z,63.41
2023-02-19T16:02:42.950Z,62.68
2023-02-19T16:05:17.869Z,62.14
2023-02-19T16:07:45.619Z,62.32
2023-02-19T16:10:22.813Z,62.59
2023-02-19T16:12:58.651Z,63.02
2023-02-19T16:15:27.185Z,63.20
2023-02-19T16:17:57.413Z,63.71
2023-02-19T16:20:27.425Z,64.16
2023-02-19T16:23:00.665Z,64.65
2023-02-19T16:25:34.563Z,64.57
2023-02-19T16:28:12.476Z,64.80
2023-02-19T16:30:40.849Z,64.77
2023-02-19T16:33:32.967Z,64.82
2023-02-19T16:36:18.406Z,64.96
2023-02-19T16:39:12.954Z,65.06
2023-02-19T16:42:15.500Z,65.55
2023-02-19T16:44:44.241Z,65.43
2023-02-19T16:47:33.029Z,65.35
2023-02-19T16:50:05.806Z,65.33
2023-02-19T16:52:33.561Z,65.41
2023-02-19T16:55:01.856Z,65.04
2023-02-19T16:57:29.585Z,65.60
2023-02-19T16:59:57.324Z,65.38
2023-02-19T17:02:26.147Z,65.51
2023-02-19T17:04:55.723Z,64.81
2023-02-19T17:07:26.019Z,65.01
2023-02-19T17:09:53.775Z,64.81
2023-02-19T17:12:22.195Z,64.61
2023-02-19T17:14:49.863Z,64.44
2023-02-19T17:17:17.658Z,64.59
2023-02-19T17:19:45.407Z,64.33
2023-02-19T17:22:16.998Z,64.10
2023-02-19T17:24:46.464Z,64.28
2023-02-19T17:27:14.597Z,64.17
2023-02-19T17:29:42.620Z,63.91
2023-02-19T17:32:10.415Z,63.94
2023-02-19T17:34:38.171Z,63.67
2023-02-19T17:37:05.857Z,64.17
2023-02-19T17:39:33.575Z,63.93
2023-02-19T17:42:02.665Z,63.45
2023-02-19T17:44:30.385Z,63.46
2023-02-19T17:46:58.294Z,63.46
2023-02-19T17:49:26.075Z,63.41
2023-02-19T17:51:53.926Z,63.49
2023-02-19T17:54:21.700Z,63.63
2023-02-19T17:56:49.437Z,63.16
2023-02-19T17:59:18.541Z,63.02
2023-02-19T18:01:47.071Z,63.36
2023-02-19T18:04:14.865Z,63.32
2023-02-19T18:06:42.891Z,63.66
2023-02-19T18:09:11.348Z,63.54
2023-02-19T18:11:39.559Z,63.26
2023-02-19T18:14:07.236Z,63.34
2023-02-19T18:16:36.327Z,63.11
2023-02-19T18:19:04.530Z,63.10
2023-02-19T18:21:32.295Z,62.92
2023-02-19T18:24:00.003Z,62.73
2023-02-19T18:26:27.802Z,62.88
2023-02-19T18:28:55.477Z,62.89
2023-02-19T18:31:23.284Z,62.52
2023-02-19T18:33:52.460Z,63.09
2023-02-19T18:36:20.180Z,62.63
2023-02-19T18:38:47.902Z,62.99
2023-02-19T18:41:19.766Z,62.82
2023-02-19T18:43:48.231Z,62.67
2023-02-19T18:46:16.170Z,62.79
2023-02-19T18:48:43.929Z,62.72
2023-02-19T18:51:14.429Z,62.53
2023-02-19T18:53:43.511Z,62.62
2023-02-19T18:56:11.213Z,62.60
2023-02-19T18:58:38.917Z,62.56
2023-02-19T19:01:06.772Z,62.97
2023-02-19T19:03:34.584Z,62.59
2023-02-19T19:06:02.311Z,62.63
2023-02-19T19:08:31.472Z,63.00
2023-02-19T19:10:59.211Z,63.01
2023-02-19T19:13:26.939Z,62.48
2023-02-19T19:15:54.741Z,62.76
2023-02-19T19:18:22.515Z,62.36
2023-02-19T19:20:50.209Z,62.84
2023-02-19T19:23:17.960Z,63.03
2023-02-19T19:25:47.043Z,63.11
2023-02-19T19:28:14.797Z,63.33
2023-02-19T19:30:42.609Z,63.07
2023-02-19T19:33:12.117Z,63.38
2023-02-19T19:35:41.704Z,63.20
2023-02-19T19:38:09.400Z,63.62
2023-02-19T19:40:37.353Z,63.17
2023-02-19T19:43:06.444Z,63.64
2023-02-19T19:45:34.186Z,63.78
2023-02-19T19:48:02.305Z,63.85
2023-02-19T19:50:30.081Z,63.69
2023-02-19T19:52:57.902Z,64.10
2023-02-19T19:55:25.624Z,63.37
2023-02-19T19:57:54.477Z,63.65
2023-02-19T20:00:24.473Z,63.46
2023-02-19T20:02:52.243Z,63.68
2023-02-19T20:05:20.020Z,63.58
2023-02-19T20:07:47.796Z,63.78
2023-02-19T20:10:16.144Z,63.95
2023-02-19T20:12:44.184Z,63.94
2023-02-19T20:15:12.058Z,63.57
2023-02-19T20:17:41.159Z,63.97
2023-02-19T20:20:10.268Z,63.74
2023-02-19T20:22:39.254Z,64.07
2023-02-19T20:25:07.406Z,63.92
2023-02-19T20:27:35.205Z,64.31
2023-02-19T20:30:03.039Z,64.19
2023-02-19T20:32:30.793Z,64.04
2023-02-19T20:34:59.889Z,64.21
2023-02-19T20:37:27.657Z,64.16
2023-02-19T20:39:55.326Z,64.53
2023-02-19T20:42:23.088Z,64.29
2023-02-19T20:44:50.813Z,64.18
2023-02-19T20:47:18.560Z,63.93
2023-02-19T20:49:47.077Z,64.23
2023-02-19T20:52:17.795Z,64.10
2023-02-19T20:54:45.581Z,64.24
2023-02-19T20:57:15.230Z,64.25
2023-02-19T20:59:44.245Z,64.48
2023-02-19T21:02:17.840Z,64.10
2023-02-19T21:04:45.583Z,64.20
2023-02-19T21:07:13.440Z,64.61
2023-02-19T21:09:42.594Z,64.25
2023-02-19T21:12:10.368Z,64.36
2023-02-19T21:14:38.063Z,64.28
2023-02-19T21:17:06.470Z,64.73
2023-02-19T21:19:34.261Z,64.65
2023-02-19T21:22:02.028Z,64.39
2023-02-19T21:24:29.969Z,64.30
2023-02-19T21:26:59.280Z,64.75
2023-02-19T21:29:27.123Z,64.45
2023-02-19T21:31:57.177Z,64.46
2023-02-19T21:34:27.035Z,64.37
2023-02-19T21:36:55.472Z,64.67
2023-02-19T21:39:25.064Z,64.58
2023-02-19T21:41:53.244Z,64.01
2023-02-19T21:44:22.616Z,64.82
2023-02-19T21:46:50.326Z,64.99
2023-02-19T21:49:18.624Z,64.52
2023-02-19T21:51:48.010Z,65.02
2023-02-19T21:54:18.404Z,64.69
2023-02-19T21:56:46.169Z,64.51
2023-02-19T21:59:14.237Z,64.47
2023-02-19T22:01:43.487Z,64.68
2023-02-19T22:04:13.812Z,64.78
2023-02-19T22:06:41.963Z,64.75
2023-02-19T22:09:10.540Z,64.84
2023-02-19T22:11:38.288Z,65.21
2023-02-19T22:14:07.269Z,64.56
2023-02-19T22:16:35.209Z,64.80
2023-02-19T22:19:04.733Z,64.94
2023-02-19T22:21:33.274Z,65.13
2023-02-19T22:24:02.198Z,64.77
2023-02-19T22:26:32.515Z,64.92
2023-02-19T22:29:01.428Z,64.87
2023-02-19T22:31:29.565Z,65.01
2023-02-19T22:33:57.523Z,64.52
2023-02-19T22:36:31.013Z,64.97
2023-02-19T22:38:58.758Z,65.08
2023-02-19T22:41:27.348Z,64.80
2023-02-19T22:43:55.564Z,64.55
2023-02-19T22:46:26.127Z,64.83
2023-02-19T22:48:53.821Z,64.95
2023-02-19T22:51:23.955Z,64.63
2023-02-19T22:53:54.998Z,64.57
2023-02-19T22:56:24.516Z,64.88
2023-02-19T22:58:52.589Z,65.03
2023-02-19T23:01:20.813Z,64.69
2023-02-19T23:03:50.691Z,64.73
2023-02-19T23:06:21.899Z,65.19
2023-02-19T23:08:49.748Z,64.75
2023-02-19T23:11:23.796Z,64.77
2023-02-19T23:13:51.930Z,65.07
2023-02-19T23:16:20.075Z,64.64
2023-02-19T23:18:48.115Z,64.67
2023-02-19T23:21:16.756Z,65.17
2023-02-19T23:23:45.515Z,64.79
2023-02-19T23:26:14.882Z,64.52
2023-02-19T23:28:44.655Z,64.63
2023-02-19T23:31:13.622Z,64.82
2023-02-19T23:33:41.884Z,64.60
2023-02-19T23:36:10.984Z,64.48
2023-02-19T23:38:39.021Z,64.71
2023-02-19T23:41:10.836Z,64.80
2023-02-19T23:43:38.899Z,64.75
2023-02-19T23:46:08.669Z,64.66
2023-02-19T23:48:36.708Z,65.12
2023-02-19T23:51:04.620Z,65.47
2023-02-19T23:53:32.379Z,65.31
2023-02-19T23:56:00.080Z,65.14
2023-02-19T23:58:28.109Z,64.98
